sensor_id;sensor_type;location;lat;lon;timestamp;P1;durP1;ratioP1;P2;durP2;ratioP2
3307;SDS011;1666;48.898;9.182;2023-08-06T00:02:22;9.27;;;6.43;;
3307;SDS011;1666;48.898;9.182;2023-08-06T00:04:52;10.88;;;7.05;;
3307;SDS011;1666;48.898;9.182;2023-08-06T00:07:22;11.13;;;6.47;;
3307;SDS011;1666;48.898;9.182;2023-08-06T00:09:51;7.85;;;7.05;;
3307;SDS011;1666;48.898;9.182;2023-08-06T00:12:24;8.88;;;7.22;;
3307;SDS011;1666;48.898;9.182;2023-08-06T00:14:54;9.68;;;7.07;;
3307;SDS011;1666;48.898;9.182;2023-08-06T00:17:24;8.85;;;7.45;;
3307;SDS011;1666;48.898;9.182;2023-08-06T00:19:54;8.90;;;7.88;;
3307;SDS011;1666;48.898;9.182;2023-08-06T00:22:24;9.63;;;7.75;;
3307;SDS011;1666;48.898;9.182;2023-08-06T00:24:54;10.68;;;8.50;;
3307;SDS011;1666;48.898;9.182;2023-08-06T00:27:26;11.73;;;8.77;;
3307;SDS011;1666;48.898;9.182;2023-08-06T00:29:56;14.60;;;9.32;;
3307;SDS011;1666;48.898;9.182;2023-08-06T00:32:26;14.57;;;10.80;;
3307;SDS011;1666;48.898;9.182;2023-08-06T00:34:56;13.80;;;10.30;;
3307;SDS011;1666;48.898;9.182;2023-08-06T00:37:26;12.00;;;10.10;;
3307;SDS011;1666;48.898;9.182;2023-08-06T00:39:56;12.25;;;9.75;;
3307;SDS011;1666;48.898;9.182;2023-08-06T00:42:28;16.48;;;10.18;;
3307;SDS011;1666;48.898;9.182;2023-08-06T00:44:58;14.75;;;10.68;;
3307;SDS011;1666;48.898;9.182;2023-08-06T00:47:28;13.65;;;10.95;;
3307;SDS011;1666;48.898;9.182;2023-08-06T00:49:58;12.60;;;9.65;;
3307;SDS011;1666;48.898;9.182;2023-08-06T00:52:29;12.80;;;9.90;;
3307;SDS011;1666;48.898;9.182;2023-08-06T00:54:59;11.13;;;9.85;;
3307;SDS011;1666;48.898;9.182;2023-08-06T00:57:31;11.43;;;9.57;;
3307;SDS011;1666;48.898;9.182;2023-08-06T01:00:02;12.68;;;9.77;;
3307;SDS011;1666;48.898;9.182;2023-08-06T01:02:33;11.90;;;9.80;;
3307;SDS011;1666;48.898;9.182;2023-08-06T01:05:04;10.88;;;9.18;;
3307;SDS011;1666;48.898;9.182;2023-08-06T01:07:37;13.95;;;9.57;;
3307;SDS011;1666;48.898;9.182;2023-08-06T01:10:27;9.07;;;8.00;;
3307;SDS011;1666;48.898;9.182;2023-08-06T01:13:08;10.77;;;8.05;;
3307;SDS011;1666;48.898;9.182;2023-08-06T01:15:46;13.35;;;8.88;;
3307;SDS011;1666;48.898;9.182;2023-08-06T01:18:18;14.52;;;9.00;;
3307;SDS011;1666;48.898;9.182;2023-08-06T01:20:51;14.60;;;8.73;;
3307;SDS011;1666;48.898;9.182;2023-08-06T01:23:21;11.07;;;8.80;;
3307;SDS011;1666;48.898;9.182;2023-08-06T01:25:53;11.07;;;8.80;;
3307;SDS011;1666;48.898;9.182;2023-08-06T01:28:32;11.30;;;8.90;;
3307;SDS011;1666;48.898;9.182;2023-08-06T01:31:10;11.20;;;8.68;;
3307;SDS011;1666;48.898;9.182;2023-08-06T01:33:47;10.02;;;8.63;;
3307;SDS011;1666;48.898;9.182;2023-08-06T01:36:22;9.27;;;7.68;;
3307;SDS011;1666;48.898;9.182;2023-08-06T01:38:53;10.43;;;7.57;;
3307;SDS011;1666;48.898;9.182;2023-08-06T01:41:23;10.10;;;8.70;;
3307;SDS011;1666;48.898;9.182;2023-08-06T01:43:53;12.15;;;9.75;;
3307;SDS011;1666;48.898;9.182;2023-08-06T01:46:23;13.60;;;10.90;;
3307;SDS011;1666;48.898;9.182;2023-08-06T01:48:53;17.08;;;11.93;;
3307;SDS011;1666;48.898;9.182;2023-08-06T01:51:26;17.67;;;13.25;;
3307;SDS011;1666;48.898;9.182;2023-08-06T01:53:56;16.27;;;12.13;;
3307;SDS011;1666;48.898;9.182;2023-08-06T01:56:25;13.80;;;11.07;;
3307;SDS011;1666;48.898;9.182;2023-08-06T01:58:58;16.33;;;10.93;;
3307;SDS011;1666;48.898;9.182;2023-08-06T02:01:30;16.75;;;10.68;;
3307;SDS011;1666;48.898;9.182;2023-08-06T02:04:00;11.45;;;8.88;;
3307;SDS011;1666;48.898;9.182;2023-08-06T02:06:33;10.82;;;8.82;;
3307;SDS011;1666;48.898;9.182;2023-08-06T02:09:03;8.85;;;7.50;;
3307;SDS011;1666;48.898;9.182;2023-08-06T02:11:32;7.82;;;6.35;;
3307;SDS011;1666;48.898;9.182;2023-08-06T02:14:02;5.85;;;4.93;;
3307;SDS011;1666;48.898;9.182;2023-08-06T02:16:32;7.10;;;4.82;;
3307;SDS011;1666;48.898;9.182;2023-08-06T02:19:02;5.93;;;4.18;;
3307;SDS011;1666;48.898;9.182;2023-08-06T02:21:35;5.38;;;4.05;;
3307;SDS011;1666;48.898;9.182;2023-08-06T02:24:05;7.22;;;4.07;;
3307;SDS011;1666;48.898;9.182;2023-08-06T02:26:35;6.28;;;3.65;;
3307;SDS011;1666;48.898;9.182;2023-08-06T02:29:05;4.35;;;3.15;;
3307;SDS011;1666;48.898;9.182;2023-08-06T02:31:34;5.43;;;3.42;;
3307;SDS011;1666;48.898;9.182;2023-08-06T02:34:04;7.38;;;3.80;;
3307;SDS011;1666;48.898;9.182;2023-08-06T02:36:37;3.97;;;3.35;;
3307;SDS011;1666;48.898;9.182;2023-08-06T02:39:07;6.95;;;3.72;;
3307;SDS011;1666;48.898;9.182;2023-08-06T02:41:37;3.85;;;3.28;;
3307;SDS011;1666;48.898;9.182;2023-08-06T02:44:06;4.22;;;3.00;;
3307;SDS011;1666;48.898;9.182;2023-08-06T02:46:36;4.68;;;3.00;;
3307;SDS011;1666;48.898;9.182;2023-08-06T02:49:06;5.57;;;3.30;;
3307;SDS011;1666;48.898;9.182;2023-08-06T02:51:39;5.53;;;3.20;;
3307;SDS011;1666;48.898;9.182;2023-08-06T02:54:08;5.78;;;3.00;;
3307;SDS011;1666;48.898;9.182;2023-08-06T02:56:38;4.80;;;3.15;;
3307;SDS011;1666;48.898;9.182;2023-08-06T02:59:13;3.88;;;3.40;;
3307;SDS011;1666;48.898;9.182;2023-08-06T03:01:43;3.70;;;3.33;;
3307;SDS011;1666;48.898;9.182;2023-08-06T03:04:13;4.25;;;3.10;;
3307;SDS011;1666;48.898;9.182;2023-08-06T03:06:48;4.90;;;3.75;;
3307;SDS011;1666;48.898;9.182;2023-08-06T03:09:18;6.55;;;3.25;;
3307;SDS011;1666;48.898;9.182;2023-08-06T03:11:48;5.60;;;3.40;;
3307;SDS011;1666;48.898;9.182;2023-08-06T03:14:19;5.45;;;3.38;;
3307;SDS011;1666;48.898;9.182;2023-08-06T03:16:48;4.13;;;3.28;;
3307;SDS011;1666;48.898;9.182;2023-08-06T03:19:18;6.60;;;3.70;;
3307;SDS011;1666;48.898;9.182;2023-08-06T03:21:51;3.97;;;3.22;;
3307;SDS011;1666;48.898;9.182;2023-08-06T03:24:21;3.55;;;3.05;;
3307;SDS011;1666;48.898;9.182;2023-08-06T03:26:51;4.97;;;3.38;;
3307;SDS011;1666;48.898;9.182;2023-08-06T03:29:21;4.57;;;4.07;;
3307;SDS011;1666;48.898;9.182;2023-08-06T03:31:51;8.32;;;4.28;;
3307;SDS011;1666;48.898;9.182;2023-08-06T03:34:21;9.38;;;4.63;;
3307;SDS011;1666;48.898;9.182;2023-08-06T03:36:54;7.35;;;4.57;;
3307;SDS011;1666;48.898;9.182;2023-08-06T03:39:24;7.72;;;4.25;;
3307;SDS011;1666;48.898;9.182;2023-08-06T03:41:53;7.20;;;4.13;;
3307;SDS011;1666;48.898;9.182;2023-08-06T03:44:23;4.85;;;3.97;;
3307;SDS011;1666;48.898;9.182;2023-08-06T03:46:55;7.35;;;4.60;;
3307;SDS011;1666;48.898;9.182;2023-08-06T03:49:24;5.93;;;4.32;;
3307;SDS011;1666;48.898;9.182;2023-08-06T03:51:57;5.72;;;4.25;;
3307;SDS011;1666;48.898;9.182;2023-08-06T03:54:27;4.90;;;4.07;;
3307;SDS011;1666;48.898;9.182;2023-08-06T03:56:57;4.43;;;3.85;;
3307;SDS011;1666;48.898;9.182;2023-08-06T03:59:27;9.50;;;4.10;;
3307;SDS011;1666;48.898;9.182;2023-08-06T04:01:56;6.32;;;3.95;;
3307;SDS011;1666;48.898;9.182;2023-08-06T04:04:26;4.75;;;3.47;;
3307;SDS011;1666;48.898;9.182;2023-08-06T04:06:59;6.10;;;3.53;;
3307;SDS011;1666;48.898;9.182;2023-08-06T04:09:29;4.13;;;3.25;;
3307;SDS011;1666;48.898;9.182;2023-08-06T04:11:59;5.22;;;3.40;;
3307;SDS011;1666;48.898;9.182;2023-08-06T04:14:31;4.50;;;3.05;;
3307;SDS011;1666;48.898;9.182;2023-08-06T04:17:01;5.32;;;3.70;;
3307;SDS011;1666;48.898;9.182;2023-08-06T04:19:31;7.82;;;3.20;;
3307;SDS011;1666;48.898;9.182;2023-08-06T04:22:03;6.55;;;3.10;;
3307;SDS011;1666;48.898;9.182;2023-08-06T04:24:33;5.32;;;3.55;;
3307;SDS011;1666;48.898;9.182;2023-08-06T04:27:04;4.32;;;3.13;;
3307;SDS011;1666;48.898;9.182;2023-08-06T04:29:34;4.03;;;3.55;;
3307;SDS011;1666;48.898;9.182;2023-08-06T04:32:05;4.20;;;3.20;;
3307;SDS011;1666;48.898;9.182;2023-08-06T04:34:36;3.92;;;3.20;;
3307;SDS011;1666;48.898;9.182;2023-08-06T04:37:09;4.05;;;2.97;;
3307;SDS011;1666;48.898;9.182;2023-08-06T04:39:39;3.17;;;2.65;;
3307;SDS011;1666;48.898;9.182;2023-08-06T04:42:08;3.92;;;2.75;;
3307;SDS011;1666;48.898;9.182;2023-08-06T04:44:38;5.38;;;3.28;;
3307;SDS011;1666;48.898;9.182;2023-08-06T04:47:08;5.18;;;2.60;;
3307;SDS011;1666;48.898;9.182;2023-08-06T04:49:38;4.22;;;2.40;;
3307;SDS011;1666;48.898;9.182;2023-08-06T04:52:11;3.08;;;2.30;;
3307;SDS011;1666;48.898;9.182;2023-08-06T04:54:41;6.15;;;2.80;;
3307;SDS011;1666;48.898;9.182;2023-08-06T04:57:13;5.25;;;2.45;;
3307;SDS011;1666;48.898;9.182;2023-08-06T04:59:43;4.43;;;2.55;;
3307;SDS011;1666;48.898;9.182;2023-08-06T05:02:12;4.63;;;2.30;;
3307;SDS011;1666;48.898;9.182;2023-08-06T05:04:42;3.65;;;2.55;;
3307;SDS011;1666;48.898;9.182;2023-08-06T05:07:15;4.78;;;2.65;;
3307;SDS011;1666;48.898;9.182;2023-08-06T05:09:45;4.93;;;3.58;;
3307;SDS011;1666;48.898;9.182;2023-08-06T05:12:15;6.55;;;2.78;;
3307;SDS011;1666;48.898;9.182;2023-08-06T05:14:45;4.97;;;3.03;;
3307;SDS011;1666;48.898;9.182;2023-08-06T05:17:14;3.85;;;2.63;;
3307;SDS011;1666;48.898;9.182;2023-08-06T05:19:44;3.25;;;1.92;;
3307;SDS011;1666;48.898;9.182;2023-08-06T05:22:17;7.30;;;2.55;;
3307;SDS011;1666;48.898;9.182;2023-08-06T05:24:47;3.03;;;2.15;;
3307;SDS011;1666;48.898;9.182;2023-08-06T05:27:17;2.95;;;2.25;;
3307;SDS011;1666;48.898;9.182;2023-08-06T05:29:47;4.15;;;2.08;;
3307;SDS011;1666;48.898;9.182;2023-08-06T05:32:17;7.10;;;2.35;;
3307;SDS011;1666;48.898;9.182;2023-08-06T05:34:47;5.43;;;2.30;;
3307;SDS011;1666;48.898;9.182;2023-08-06T05:37:20;5.35;;;1.92;;
3307;SDS011;1666;48.898;9.182;2023-08-06T05:39:50;3.90;;;2.25;;
3307;SDS011;1666;48.898;9.182;2023-08-06T05:42:20;4.88;;;2.25;;
3307;SDS011;1666;48.898;9.182;2023-08-06T05:44:50;5.38;;;2.05;;
3307;SDS011;1666;48.898;9.182;2023-08-06T05:47:19;4.32;;;2.00;;
3307;SDS011;1666;48.898;9.182;2023-08-06T05:49:49;3.38;;;1.80;;
3307;SDS011;1666;48.898;9.182;2023-08-06T05:52:22;2.95;;;1.80;;
3307;SDS011;1666;48.898;9.182;2023-08-06T05:54:52;3.83;;;1.98;;
3307;SDS011;1666;48.898;9.182;2023-08-06T05:57:22;1.67;;;1.40;;
3307;SDS011;1666;48.898;9.182;2023-08-06T05:59:52;6.93;;;2.80;;
3307;SDS011;1666;48.898;9.182;2023-08-06T06:02:21;3.33;;;1.50;;
3307;SDS011;1666;48.898;9.182;2023-08-06T06:04:51;2.17;;;1.35;;
3307;SDS011;1666;48.898;9.182;2023-08-06T06:07:24;4.13;;;1.60;;
3307;SDS011;1666;48.898;9.182;2023-08-06T06:09:54;3.33;;;1.38;;
3307;SDS011;1666;48.898;9.182;2023-08-06T06:12:24;2.63;;;1.70;;
3307;SDS011;1666;48.898;9.182;2023-08-06T06:14:54;3.25;;;1.58;;
3307;SDS011;1666;48.898;9.182;2023-08-06T06:17:23;1.65;;;1.20;;
3307;SDS011;1666;48.898;9.182;2023-08-06T06:19:53;2.65;;;1.30;;
3307;SDS011;1666;48.898;9.182;2023-08-06T06:22:26;2.55;;;1.23;;
3307;SDS011;1666;48.898;9.182;2023-08-06T06:24:56;2.80;;;1.00;;
3307;SDS011;1666;48.898;9.182;2023-08-06T06:27:26;2.15;;;0.90;;
3307;SDS011;1666;48.898;9.182;2023-08-06T06:29:55;3.83;;;1.10;;
3307;SDS011;1666;48.898;9.182;2023-08-06T06:32:25;2.97;;;1.17;;
3307;SDS011;1666;48.898;9.182;2023-08-06T06:34:55;1.08;;;0.68;;
3307;SDS011;1666;48.898;9.182;2023-08-06T06:37:28;1.77;;;0.68;;
3307;SDS011;1666;48.898;9.182;2023-08-06T06:39:58;3.67;;;0.70;;
3307;SDS011;1666;48.898;9.182;2023-08-06T06:42:27;1.40;;;0.63;;
3307;SDS011;1666;48.898;9.182;2023-08-06T06:44:57;1.20;;;0.50;;
3307;SDS011;1666;48.898;9.182;2023-08-06T06:47:28;3.78;;;0.60;;
3307;SDS011;1666;48.898;9.182;2023-08-06T06:49:57;2.97;;;0.65;;
3307;SDS011;1666;48.898;9.182;2023-08-06T06:52:30;2.25;;;0.65;;
3307;SDS011;1666;48.898;9.182;2023-08-06T06:55:00;2.30;;;0.88;;
3307;SDS011;1666;48.898;9.182;2023-08-06T06:57:30;1.52;;;0.60;;
3307;SDS011;1666;48.898;9.182;2023-08-06T07:00:00;3.97;;;0.95;;
3307;SDS011;1666;48.898;9.182;2023-08-06T07:02:32;2.03;;;0.73;;
3307;SDS011;1666;48.898;9.182;2023-08-06T07:05:02;1.90;;;0.70;;
3307;SDS011;1666;48.898;9.182;2023-08-06T07:07:35;1.00;;;0.60;;
3307;SDS011;1666;48.898;9.182;2023-08-06T07:10:06;3.40;;;0.68;;
3307;SDS011;1666;48.898;9.182;2023-08-06T07:12:37;1.45;;;0.50;;
3307;SDS011;1666;48.898;9.182;2023-08-06T07:15:07;6.20;;;0.55;;
3307;SDS011;1666;48.898;9.182;2023-08-06T07:17:38;1.75;;;0.40;;
3307;SDS011;1666;48.898;9.182;2023-08-06T07:20:08;1.50;;;0.30;;
3307;SDS011;1666;48.898;9.182;2023-08-06T07:22:41;2.10;;;0.63;;
3307;SDS011;1666;48.898;9.182;2023-08-06T07:25:11;0.70;;;0.40;;
3307;SDS011;1666;48.898;9.182;2023-08-06T07:27:41;0.20;;;0.20;;
3307;SDS011;1666;48.898;9.182;2023-08-06T07:30:11;1.20;;;0.40;;
3307;SDS011;1666;48.898;9.182;2023-08-06T07:32:41;0.90;;;0.30;;
3307;SDS011;1666;48.898;9.182;2023-08-06T07:35:11;2.28;;;0.47;;
3307;SDS011;1666;48.898;9.182;2023-08-06T07:37:43;0.40;;;0.20;;
3307;SDS011;1666;48.898;9.182;2023-08-06T07:40:13;0.20;;;0.20;;
3307;SDS011;1666;48.898;9.182;2023-08-06T07:42:43;1.08;;;0.30;;
3307;SDS011;1666;48.898;9.182;2023-08-06T07:45:13;0.17;;;0.17;;
3307;SDS011;1666;48.898;9.182;2023-08-06T07:47:44;3.30;;;0.30;;
3307;SDS011;1666;48.898;9.182;2023-08-06T07:50:14;1.17;;;0.13;;
3307;SDS011;1666;48.898;9.182;2023-08-06T07:52:46;0.82;;;0.20;;
3307;SDS011;1666;48.898;9.182;2023-08-06T07:55:16;1.67;;;0.40;;
3307;SDS011;1666;48.898;9.182;2023-08-06T07:57:46;0.73;;;0.40;;
3307;SDS011;1666;48.898;9.182;2023-08-06T08:00:16;0.32;;;0.28;;
3307;SDS011;1666;48.898;9.182;2023-08-06T08:02:46;0.82;;;0.20;;
3307;SDS011;1666;48.898;9.182;2023-08-06T08:05:16;1.40;;;0.30;;
3307;SDS011;1666;48.898;9.182;2023-08-06T08:07:48;0.65;;;0.28;;
3307;SDS011;1666;48.898;9.182;2023-08-06T08:10:18;0.90;;;0.20;;
3307;SDS011;1666;48.898;9.182;2023-08-06T08:12:48;2.70;;;0.20;;
3307;SDS011;1666;48.898;9.182;2023-08-06T08:15:18;1.50;;;0.38;;
3307;SDS011;1666;48.898;9.182;2023-08-06T08:17:49;0.70;;;0.30;;
3307;SDS011;1666;48.898;9.182;2023-08-06T08:20:19;1.00;;;0.25;;
3307;SDS011;1666;48.898;9.182;2023-08-06T08:22:52;0.68;;;0.30;;
3307;SDS011;1666;48.898;9.182;2023-08-06T08:25:21;0.60;;;0.28;;
3307;SDS011;1666;48.898;9.182;2023-08-06T08:27:51;0.85;;;0.30;;
3307;SDS011;1666;48.898;9.182;2023-08-06T08:30:21;0.13;;;0.10;;
3307;SDS011;1666;48.898;9.182;2023-08-06T08:32:52;0.90;;;0.20;;
3307;SDS011;1666;48.898;9.182;2023-08-06T08:35:22;0.75;;;0.13;;
3307;SDS011;1666;48.898;9.182;2023-08-06T08:37:54;1.58;;;0.20;;
3307;SDS011;1666;48.898;9.182;2023-08-06T08:40:25;0.40;;;0.25;;
3307;SDS011;1666;48.898;9.182;2023-08-06T08:42:59;2.55;;;0.28;;
3307;SDS011;1666;48.898;9.182;2023-08-06T08:45:29;0.57;;;0.20;;
3307;SDS011;1666;48.898;9.182;2023-08-06T08:48:03;0.28;;;0.10;;
3307;SDS011;1666;48.898;9.182;2023-08-06T08:50:33;0.63;;;0.10;;
3307;SDS011;1666;48.898;9.182;2023-08-06T08:53:06;0.13;;;0.10;;
3307;SDS011;1666;48.898;9.182;2023-08-06T08:55:37;0.90;;;0.20;;
3307;SDS011;1666;48.898;9.182;2023-08-06T08:58:08;1.58;;;0.20;;
3307;SDS011;1666;48.898;9.182;2023-08-06T09:00:39;1.05;;;0.20;;
3307;SDS011;1666;48.898;9.182;2023-08-06T09:03:10;0.20;;;0.13;;
3307;SDS011;1666;48.898;9.182;2023-08-06T09:05:41;3.60;;;0.30;;
3307;SDS011;1666;48.898;9.182;2023-08-06T09:08:17;2.45;;;0.38;;
3307;SDS011;1666;48.898;9.182;2023-08-06T09:10:49;0.75;;;0.30;;
3307;SDS011;1666;48.898;9.182;2023-08-06T09:13:19;1.30;;;0.30;;
3307;SDS011;1666;48.898;9.182;2023-08-06T09:15:50;1.98;;;0.20;;
3307;SDS011;1666;48.898;9.182;2023-08-06T09:18:24;1.90;;;0.30;;
3307;SDS011;1666;48.898;9.182;2023-08-06T09:20:55;0.65;;;0.20;;
3307;SDS011;1666;48.898;9.182;2023-08-06T09:23:31;0.43;;;0.20;;
3307;SDS011;1666;48.898;9.182;2023-08-06T09:26:02;0.40;;;0.20;;
3307;SDS011;1666;48.898;9.182;2023-08-06T09:28:38;0.55;;;0.10;;
3307;SDS011;1666;48.898;9.182;2023-08-06T09:31:10;1.05;;;0.30;;
3307;SDS011;1666;48.898;9.182;2023-08-06T09:33:40;0.50;;;0.17;;
3307;SDS011;1666;48.898;9.182;2023-08-06T09:36:11;0.95;;;0.30;;
3307;SDS011;1666;48.898;9.182;2023-08-06T09:38:44;0.73;;;0.20;;
3307;SDS011;1666;48.898;9.182;2023-08-06T09:41:18;0.40;;;0.10;;
3307;SDS011;1666;48.898;9.182;2023-08-06T09:43:56;0.30;;;0.10;;
3307;SDS011;1666;48.898;9.182;2023-08-06T09:46:25;0.30;;;0.13;;
3307;SDS011;1666;48.898;9.182;2023-08-06T09:49:00;1.30;;;0.20;;
3307;SDS011;1666;48.898;9.182;2023-08-06T09:51:34;2.90;;;0.40;;
3307;SDS011;1666;48.898;9.182;2023-08-06T09:54:09;0.65;;;0.15;;
3307;SDS011;1666;48.898;9.182;2023-08-06T09:56:53;0.20;;;0.13;;
3307;SDS011;1666;48.898;9.182;2023-08-06T09:59:23;0.52;;;0.10;;
3307;SDS011;1666;48.898;9.182;2023-08-06T10:01:54;0.10;;;0.10;;
3307;SDS011;1666;48.898;9.182;2023-08-06T10:04:24;0.75;;;0.17;;
3307;SDS011;1666;48.898;9.182;2023-08-06T10:07:06;0.10;;;0.10;;
3307;SDS011;1666;48.898;9.182;2023-08-06T10:09:39;0.45;;;0.20;;
3307;SDS011;1666;48.898;9.182;2023-08-06T10:12:09;0.22;;;0.22;;
3307;SDS011;1666;48.898;9.182;2023-08-06T10:14:39;0.63;;;0.30;;
3307;SDS011;1666;48.898;9.182;2023-08-06T10:17:11;2.35;;;0.30;;
3307;SDS011;1666;48.898;9.182;2023-08-06T10:19:41;0.98;;;0.10;;
3307;SDS011;1666;48.898;9.182;2023-08-06T10:22:12;0.20;;;0.10;;
3307;SDS011;1666;48.898;9.182;2023-08-06T10:24:50;0.10;;;0.10;;
3307;SDS011;1666;48.898;9.182;2023-08-06T10:27:21;0.20;;;0.10;;
3307;SDS011;1666;48.898;9.182;2023-08-06T10:29:52;0.50;;;0.20;;
3307;SDS011;1666;48.898;9.182;2023-08-06T10:35:28;1.30;;;0.20;;
3307;SDS011;1666;48.898;9.182;2023-08-06T10:37:59;0.30;;;0.28;;
3307;SDS011;1666;48.898;9.182;2023-08-06T10:40:35;0.77;;;0.28;;
3307;SDS011;1666;48.898;9.182;2023-08-06T10:43:05;0.22;;;0.10;;
3307;SDS011;1666;48.898;9.182;2023-08-06T10:45:37;1.30;;;0.20;;
3307;SDS011;1666;48.898;9.182;2023-08-06T10:48:07;0.22;;;0.10;;
3307;SDS011;1666;48.898;9.182;2023-08-06T10:50:37;0.13;;;0.10;;
3307;SDS011;1666;48.898;9.182;2023-08-06T10:53:07;0.17;;;0.15;;
3307;SDS011;1666;48.898;9.182;2023-08-06T10:55:41;1.17;;;0.10;;
3307;SDS011;1666;48.898;9.182;2023-08-06T10:58:11;0.40;;;0.20;;
3307;SDS011;1666;48.898;9.182;2023-08-06T11:00:45;0.90;;;0.20;;
3307;SDS011;1666;48.898;9.182;2023-08-06T11:03:15;0.40;;;0.20;;
3307;SDS011;1666;48.898;9.182;2023-08-06T11:05:48;1.20;;;0.47;;
3307;SDS011;1666;48.898;9.182;2023-08-06T11:08:25;1.65;;;0.20;;
3307;SDS011;1666;48.898;9.182;2023-08-06T11:10:57;2.42;;;0.50;;
3307;SDS011;1666;48.898;9.182;2023-08-06T11:13:37;0.88;;;0.45;;
3307;SDS011;1666;48.898;9.182;2023-08-06T11:16:07;1.05;;;0.45;;
3307;SDS011;1666;48.898;9.182;2023-08-06T11:18:38;0.57;;;0.47;;
3307;SDS011;1666;48.898;9.182;2023-08-06T11:21:09;5.65;;;0.85;;
3307;SDS011;1666;48.898;9.182;2023-08-06T11:23:40;0.82;;;0.60;;
3307;SDS011;1666;48.898;9.182;2023-08-06T11:26:12;0.50;;;0.40;;
3307;SDS011;1666;48.898;9.182;2023-08-06T11:28:49;0.47;;;0.40;;
3307;SDS011;1666;48.898;9.182;2023-08-06T11:31:20;1.10;;;0.65;;
3307;SDS011;1666;48.898;9.182;2023-08-06T11:33:50;1.00;;;0.70;;
3307;SDS011;1666;48.898;9.182;2023-08-06T11:36:28;0.65;;;0.60;;
3307;SDS011;1666;48.898;9.182;2023-08-06T11:38:59;2.08;;;0.95;;
3307;SDS011;1666;48.898;9.182;2023-08-06T11:41:32;1.48;;;0.80;;
3307;SDS011;1666;48.898;9.182;2023-08-06T11:44:04;1.33;;;0.80;;
3307;SDS011;1666;48.898;9.182;2023-08-06T11:46:49;2.15;;;0.82;;
3307;SDS011;1666;48.898;9.182;2023-08-06T11:49:19;2.08;;;1.17;;
3307;SDS011;1666;48.898;9.182;2023-08-06T11:51:51;1.02;;;0.80;;
3307;SDS011;1666;48.898;9.182;2023-08-06T11:54:30;2.08;;;0.95;;
3307;SDS011;1666;48.898;9.182;2023-08-06T11:57:04;1.73;;;1.05;;
3307;SDS011;1666;48.898;9.182;2023-08-06T11:59:35;1.38;;;1.00;;
3307;SDS011;1666;48.898;9.182;2023-08-06T12:02:07;4.03;;;1.05;;
3307;SDS011;1666;48.898;9.182;2023-08-06T12:07:31;4.10;;;1.50;;
3307;SDS011;1666;48.898;9.182;2023-08-06T12:10:02;3.15;;;1.40;;
3307;SDS011;1666;48.898;9.182;2023-08-06T12:12:35;2.70;;;1.58;;
3307;SDS011;1666;48.898;9.182;2023-08-06T12:15:05;4.28;;;1.60;;
3307;SDS011;1666;48.898;9.182;2023-08-06T12:17:37;4.18;;;1.75;;
3307;SDS011;1666;48.898;9.182;2023-08-06T12:20:08;3.42;;;1.73;;
3307;SDS011;1666;48.898;9.182;2023-08-06T12:22:39;5.75;;;1.98;;
3307;SDS011;1666;48.898;9.182;2023-08-06T12:25:10;3.78;;;1.70;;
3307;SDS011;1666;48.898;9.182;2023-08-06T12:27:43;5.03;;;2.00;;
3307;SDS011;1666;48.898;9.182;2023-08-06T12:30:14;3.90;;;2.40;;
3307;SDS011;1666;48.898;9.182;2023-08-06T12:32:44;5.13;;;2.58;;
3307;SDS011;1666;48.898;9.182;2023-08-06T12:35:13;3.70;;;2.10;;
3307;SDS011;1666;48.898;9.182;2023-08-06T12:37:43;4.43;;;2.00;;
3307;SDS011;1666;48.898;9.182;2023-08-06T12:40:13;3.95;;;2.03;;
3307;SDS011;1666;48.898;9.182;2023-08-06T12:43:04;2.30;;;1.65;;
3307;SDS011;1666;48.898;9.182;2023-08-06T12:45:34;3.83;;;2.20;;
3307;SDS011;1666;48.898;9.182;2023-08-06T12:48:04;3.85;;;2.00;;
3307;SDS011;1666;48.898;9.182;2023-08-06T12:50:34;3.20;;;2.05;;
3307;SDS011;1666;48.898;9.182;2023-08-06T12:53:04;3.53;;;2.00;;
3307;SDS011;1666;48.898;9.182;2023-08-06T12:55:35;3.28;;;1.40;;
3307;SDS011;1666;48.898;9.182;2023-08-06T12:58:09;2.05;;;1.25;;
3307;SDS011;1666;48.898;9.182;2023-08-06T13:00:39;2.47;;;1.27;;
3307;SDS011;1666;48.898;9.182;2023-08-06T13:03:09;3.60;;;1.30;;
3307;SDS011;1666;48.898;9.182;2023-08-06T13:05:39;1.90;;;1.30;;
3307;SDS011;1666;48.898;9.182;2023-08-06T13:08:10;3.03;;;1.23;;
3307;SDS011;1666;48.898;9.182;2023-08-06T13:10:40;2.90;;;1.60;;
3307;SDS011;1666;48.898;9.182;2023-08-06T13:13:13;1.75;;;1.23;;
3307;SDS011;1666;48.898;9.182;2023-08-06T13:15:42;4.53;;;1.13;;
3307;SDS011;1666;48.898;9.182;2023-08-06T13:18:12;1.92;;;1.13;;
3307;SDS011;1666;48.898;9.182;2023-08-06T13:20:42;1.10;;;0.90;;
3307;SDS011;1666;48.898;9.182;2023-08-06T13:23:13;3.50;;;1.00;;
3307;SDS011;1666;48.898;9.182;2023-08-06T13:25:43;3.33;;;1.45;;
3307;SDS011;1666;48.898;9.182;2023-08-06T13:28:16;1.17;;;0.80;;
3307;SDS011;1666;48.898;9.182;2023-08-06T13:30:46;0.98;;;0.55;;
3307;SDS011;1666;48.898;9.182;2023-08-06T13:33:16;4.13;;;0.73;;
3307;SDS011;1666;48.898;9.182;2023-08-06T13:35:45;1.05;;;0.85;;
3307;SDS011;1666;48.898;9.182;2023-08-06T13:38:17;0.88;;;0.60;;
3307;SDS011;1666;48.898;9.182;2023-08-06T13:40:47;0.85;;;0.50;;
3307;SDS011;1666;48.898;9.182;2023-08-06T13:43:20;0.85;;;0.40;;
3307;SDS011;1666;48.898;9.182;2023-08-06T13:45:49;1.42;;;0.50;;
3307;SDS011;1666;48.898;9.182;2023-08-06T13:48:19;1.65;;;0.73;;
3307;SDS011;1666;48.898;9.182;2023-08-06T13:50:49;0.73;;;0.40;;
3307;SDS011;1666;48.898;9.182;2023-08-06T13:53:19;0.60;;;0.40;;
3307;SDS011;1666;48.898;9.182;2023-08-06T13:55:49;1.02;;;0.50;;
3307;SDS011;1666;48.898;9.182;2023-08-06T13:58:22;2.80;;;0.55;;
3307;SDS011;1666;48.898;9.182;2023-08-06T14:00:52;1.00;;;0.60;;
3307;SDS011;1666;48.898;9.182;2023-08-06T14:03:24;0.75;;;0.65;;
3307;SDS011;1666;48.898;9.182;2023-08-06T14:05:54;1.98;;;0.60;;
3307;SDS011;1666;48.898;9.182;2023-08-06T14:08:24;1.38;;;0.50;;
3307;SDS011;1666;48.898;9.182;2023-08-06T14:10:54;1.52;;;0.55;;
3307;SDS011;1666;48.898;9.182;2023-08-06T14:13:27;1.80;;;0.68;;
3307;SDS011;1666;48.898;9.182;2023-08-06T14:15:56;1.10;;;0.80;;
3307;SDS011;1666;48.898;9.182;2023-08-06T14:18:26;1.80;;;0.82;;
3307;SDS011;1666;48.898;9.182;2023-08-06T14:20:56;4.03;;;0.95;;
3307;SDS011;1666;48.898;9.182;2023-08-06T14:23:26;0.60;;;0.60;;
3307;SDS011;1666;48.898;9.182;2023-08-06T14:25:56;1.00;;;0.90;;
3307;SDS011;1666;48.898;9.182;2023-08-06T14:28:29;6.13;;;1.17;;
3307;SDS011;1666;48.898;9.182;2023-08-06T14:30:59;2.80;;;1.10;;
3307;SDS011;1666;48.898;9.182;2023-08-06T14:33:28;2.85;;;1.23;;
3307;SDS011;1666;48.898;9.182;2023-08-06T14:35:58;2.90;;;1.20;;
3307;SDS011;1666;48.898;9.182;2023-08-06T14:38:28;1.83;;;1.20;;
3307;SDS011;1666;48.898;9.182;2023-08-06T14:41:06;2.35;;;1.38;;
3307;SDS011;1666;48.898;9.182;2023-08-06T14:43:38;1.10;;;0.82;;
3307;SDS011;1666;48.898;9.182;2023-08-06T14:46:08;1.25;;;0.90;;
3307;SDS011;1666;48.898;9.182;2023-08-06T14:48:39;1.10;;;0.82;;
3307;SDS011;1666;48.898;9.182;2023-08-06T14:51:08;1.77;;;0.80;;
3307;SDS011;1666;48.898;9.182;2023-08-06T14:53:38;1.55;;;0.93;;
3307;SDS011;1666;48.898;9.182;2023-08-06T14:56:08;3.08;;;0.98;;
3307;SDS011;1666;48.898;9.182;2023-08-06T14:58:41;2.15;;;1.10;;
3307;SDS011;1666;48.898;9.182;2023-08-06T15:01:11;2.05;;;0.82;;
3307;SDS011;1666;48.898;9.182;2023-08-06T15:03:42;3.13;;;1.35;;
3307;SDS011;1666;48.898;9.182;2023-08-06T15:06:11;1.77;;;0.90;;
3307;SDS011;1666;48.898;9.182;2023-08-06T15:08:41;1.98;;;0.90;;
3307;SDS011;1666;48.898;9.182;2023-08-06T15:11:13;3.72;;;0.90;;
3307;SDS011;1666;48.898;9.182;2023-08-06T15:13:46;1.67;;;1.00;;
3307;SDS011;1666;48.898;9.182;2023-08-06T15:16:16;1.13;;;0.60;;
3307;SDS011;1666;48.898;9.182;2023-08-06T15:18:46;3.33;;;1.08;;
3307;SDS011;1666;48.898;9.182;2023-08-06T15:21:16;1.23;;;0.65;;
3307;SDS011;1666;48.898;9.182;2023-08-06T15:23:45;3.05;;;0.80;;
3307;SDS011;1666;48.898;9.182;2023-08-06T15:26:15;1.05;;;0.60;;
3307;SDS011;1666;48.898;9.182;2023-08-06T15:28:49;1.17;;;0.93;;
3307;SDS011;1666;48.898;9.182;2023-08-06T15:31:19;0.90;;;0.75;;
3307;SDS011;1666;48.898;9.182;2023-08-06T15:33:50;2.63;;;0.95;;
3307;SDS011;1666;48.898;9.182;2023-08-06T15:36:23;3.70;;;0.80;;
3307;SDS011;1666;48.898;9.182;2023-08-06T15:38:52;1.63;;;1.05;;
3307;SDS011;1666;48.898;9.182;2023-08-06T15:41:22;1.08;;;0.80;;
3307;SDS011;1666;48.898;9.182;2023-08-06T15:43:55;1.38;;;0.98;;